Time;durP1;ratioP1;P1;durP2;ratioP2;P2;SDS_P1;SDS_P2;PMS_P1;PMS_P2;Temp;Humidity;BMP_temperature;BMP_pressure;BME280_temperature;BME280_humidity;BME280_pressure;Samples;Min_cycle;Max_cycle;Signal;HPM_P1;HPM_P2
2023/12/22 00:00:47;;;;;;;0.00;0.00;;;;;;;-145.06;99.30;54720.75;10367243;28;20047;-71
2023/12/22 00:05:47;;;;;;;0.00;0.00;;;;;;;-145.06;100.00;54720.75;10380440;28;20053;-71
2023/12/22 00:10:47;;;;;;;0.00;0.00;;;;;;;-145.06;100.00;54710.63;10371551;28;20026;-70
2023/12/22 00:15:48;;;;;;;0.00;0.00;;;;;;;-145.06;100.00;54761.28;10367272;28;20022;-70
2023/12/22 00:20:48;;;;;;;0.03;0.03;;;;;;;-145.06;99.49;54743.03;10366519;28;20014;-70
2023/12/22 00:25:48;;;;;;;0.00;0.00;;;;;;;-145.06;98.12;54767.34;10367283;28;20029;-71
2023/12/22 00:30:49;;;;;;;0.00;0.00;;;;;;;-145.06;97.15;54771.41;10364996;28;20026;-71
2023/12/22 00:35:49;;;;;;;0.10;0.10;;;;;;;-145.06;95.65;54739.00;10373838;28;20029;-71
2023/12/22 00:40:49;;;;;;;0.00;0.00;;;;;;;-145.06;93.83;54777.47;10366012;28;20018;-70
2023/12/22 00:45:50;;;;;;;0.00;0.00;;;;;;;-145.06;94.56;54771.41;10368193;28;21140;-71
2023/12/22 00:50:50;;;;;;;0.00;0.00;;;;;;;-145.06;97.77;54811.91;10373073;28;20037;-71
2023/12/22 00:55:50;;;;;;;0.00;0.00;;;;;;;-145.06;97.93;54771.41;10378212;28;20029;-70
2023/12/22 01:00:50;;;;;;;0.00;0.00;;;;;;;-145.06;99.11;54767.34;10380453;28;20010;-70
2023/12/22 01:05:51;;;;;;;0.00;0.00;;;;;;;-145.06;100.00;54755.19;10375508;28;20064;-71
2023/12/22 01:10:51;;;;;;;0.00;0.00;;;;;;;-145.06;100.00;54789.63;10372516;28;20036;-70
2023/12/22 01:15:51;;;;;;;0.00;0.00;;;;;;;-145.06;100.00;54732.91;10377888;28;20021;-71
2023/12/22 01:20:51;;;;;;;0.00;0.00;;;;;;;-145.06;100.00;54726.84;10374300;28;20084;-71
2023/12/22 01:25:52;;;;;;;0.00;0.00;;;;;;;-145.06;100.00;54730.88;10372080;28;20018;-70
2023/12/22 01:30:52;;;;;;;0.00;0.00;;;;;;;-145.06;100.00;54769.38;10385669;28;20053;-70
2023/12/22 01:35:53;;;;;;;0.00;0.00;;;;;;;-145.06;100.00;54741.03;10380368;28;20030;-70
2023/12/22 01:40:53;;;;;;;0.00;0.00;;;;;;;-145.06;100.00;54753.16;10382167;28;20471;-69
2023/12/22 01:45:58;;;;;;;0.00;0.00;;;;;;;-145.06;100.00;54779.50;10382538;28;20026;-70
2023/12/22 01:51:01;;;;;;;0.00;0.00;;;;;;;-145.06;100.00;54775.44;10380195;28;20831;-70
2023/12/22 01:56:02;;;;;;;0.00;0.00;;;;;;;-145.06;100.00;54769.38;10371293;28;20022;-70
2023/12/22 02:01:02;;;;;;;0.00;0.00;;;;;;;-145.06;100.00;54745.06;10374478;28;20080;-71
2023/12/22 02:06:05;;;;;;;0.00;0.00;;;;;;;-145.06;100.00;54755.19;10373161;28;20025;-70
2023/12/22 02:11:05;;;;;;;0.00;0.00;;;;;;;-145.06;100.00;54757.22;10375912;28;20029;-70
2023/12/22 02:16:13;;;;;;;0.00;0.00;;;;;;;-145.06;100.00;54749.13;10375650;28;20022;-70
2023/12/22 02:21:14;;;;;;;0.00;0.00;;;;;;;-145.06;100.00;54765.31;10369269;28;20018;-70
2023/12/22 02:26:27;;;;;;;0.00;0.00;;;;;;;-145.06;100.00;54724.81;10375111;28;20525;-70
2023/12/22 02:31:37;;;;;;;0.00;0.00;;;;;;;-145.06;100.00;54757.22;10373532;28;20509;-71
2023/12/22 02:36:39;;;;;;;0.00;0.00;;;;;;;-145.06;100.00;54739.00;10368903;28;20014;-69
2023/12/22 02:41:40;;;;;;;0.00;0.00;;;;;;;-145.06;100.00;54728.88;10371781;28;20014;-71
2023/12/22 02:46:43;;;;;;;0.00;0.00;;;;;;;-145.06;100.00;54736.97;10368614;28;20032;-71
2023/12/22 02:51:44;;;;;;;0.00;0.00;;;;;;;-145.06;100.00;54767.34;10374183;28;20096;-70
2023/12/22 02:56:47;;;;;;;0.00;0.00;;;;;;;-145.06;100.00;54807.88;10376898;28;20105;-70
2023/12/22 03:01:47;;;;;;;0.00;0.00;;;;;;;-145.06;100.00;54793.69;10383110;28;20071;-70
2023/12/22 03:06:48;;;;;;;0.00;0.00;;;;;;;-145.06;100.00;54795.72;10380588;28;20367;-70
2023/12/22 03:11:49;;;;;;;0.00;0.00;;;;;;;-145.06;100.00;54820.00;10383300;28;20022;-69
2023/12/22 03:16:49;;;;;;;0.00;0.00;;;;;;;-145.06;100.00;54844.31;10394757;28;20048;-70
2023/12/22 03:21:49;;;;;;;0.00;0.00;;;;;;;-145.06;100.00;54836.22;10381493;28;20064;-70
2023/12/22 03:26:50;;;;;;;0.00;0.00;;;;;;;-145.06;100.00;54848.38;10380710;28;20049;-69
2023/12/22 03:31:50;;;;;;;0.00;0.00;;;;;;;-145.06;100.00;54815.97;10390643;28;20071;-70
2023/12/22 03:36:51;;;;;;;0.00;0.00;;;;;;;-145.06;100.00;54799.75;10384377;28;20038;-70
2023/12/22 03:41:51;;;;;;;0.00;0.00;;;;;;;-145.06;100.00;54801.78;10377861;28;20260;-70
2023/12/22 03:46:51;;;;;;;0.00;0.00;;;;;;;-145.06;100.00;54791.66;10375512;28;20033;-69
2023/12/22 03:51:52;;;;;;;0.00;0.00;;;;;;;-145.06;100.00;54759.25;10391855;28;20078;-70
2023/12/22 03:56:52;;;;;;;0.00;0.00;;;;;;;-145.06;100.00;54771.41;10381613;28;20799;-70
2023/12/22 04:01:55;;;;;;;0.00;0.00;;;;;;;-145.06;100.00;54779.50;10388506;28;20017;-70
2023/12/22 04:06:55;;;;;;;0.00;0.00;;;;;;;-145.06;100.00;54747.09;10390865;28;20026;-69
2023/12/22 04:11:55;;;;;;;0.00;0.00;;;;;;;-145.06;100.00;54779.50;10386485;28;20026;-69
2023/12/22 04:16:57;;;;;;;0.00;0.00;;;;;;;-145.06;100.00;54801.78;10388913;28;20279;-69
2023/12/22 04:21:57;;;;;;;0.00;0.00;;;;;;;-145.06;100.00;54791.66;10397393;28;20112;-69
2023/12/22 04:26:57;;;;;;;0.00;0.00;;;;;;;-145.06;100.00;54773.44;10400824;28;20104;-70
2023/12/22 04:31:58;;;;;;;0.00;0.00;;;;;;;-145.06;100.00;54781.53;10387807;28;20030;-69
2023/12/22 04:36:58;;;;;;;0.00;0.00;;;;;;;-145.06;99.85;54793.69;10389934;28;20475;-70
2023/12/22 04:41:58;;;;;;;0.00;0.00;;;;;;;-145.06;98.97;54828.13;10398650;28;20501;-70
2023/12/22 04:46:59;;;;;;;0.10;0.10;;;;;;;-145.06;97.82;54783.56;10389974;28;20026;-69
2023/12/22 04:51:59;;;;;;;0.00;0.00;;;;;;;-145.06;99.06;54793.69;10393999;28;20072;-69
2023/12/22 04:56:59;;;;;;;0.00;0.00;;;;;;;-145.06;100.00;54759.25;10383778;28;20025;-70
2023/12/22 05:02:00;;;;;;;0.00;0.00;;;;;;;-145.06;97.00;54755.19;10386570;28;20049;-69
2023/12/22 05:07:01;;;;;;;0.00;0.00;;;;;;;-145.06;98.52;54795.72;10387197;28;20048;-70
2023/12/22 05:12:01;;;;;;;0.00;0.00;;;;;;;-145.06;100.00;54791.66;10387784;28;20539;-68
2023/12/22 05:17:01;;;;;;;0.00;0.00;;;;;;;-145.06;100.00;54791.66;10385723;28;20022;-68
2023/12/22 05:22:02;;;;;;;0.00;0.00;;;;;;;-145.06;100.00;54797.72;10376753;28;20868;-69
2023/12/22 05:27:02;;;;;;;0.00;0.00;;;;;;;-145.06;100.00;54799.75;10384987;28;20749;-69
2023/12/22 05:32:03;;;;;;;0.00;0.00;;;;;;;-145.06;98.14;54811.91;10381522;28;20096;-69
2023/12/22 05:37:03;;;;;;;0.00;0.00;;;;;;;-145.06;100.00;54789.63;10384690;28;20088;-69
2023/12/22 05:42:04;;;;;;;0.00;0.00;;;;;;;-145.06;100.00;54767.34;10386223;28;20014;-69
2023/12/22 05:47:04;;;;;;;0.00;0.00;;;;;;;-145.06;100.00;54824.06;10384205;28;20471;-68
2023/12/22 05:52:05;;;;;;;0.00;0.00;;;;;;;-145.06;100.00;54799.75;10379397;28;20026;-68
2023/12/22 05:57:06;;;;;;;0.00;0.00;;;;;;;-145.06;100.00;54836.22;10382460;28;20033;-69
2023/12/22 06:02:06;;;;;;;0.00;0.00;;;;;;;-145.06;93.40;54864.59;10381329;28;20026;-68
2023/12/22 06:07:06;;;;;;;0.00;0.00;;;;;;;-145.06;93.17;54832.16;10381814;28;20030;-69
2023/12/22 06:12:07;;;;;;;0.00;0.00;;;;;;;-145.06;94.62;54842.31;10384251;28;20033;-69
2023/12/22 06:17:07;;;;;;;0.00;0.00;;;;;;;-145.06;95.47;54836.22;10382908;28;20064;-69
2023/12/22 06:22:08;;;;;;;0.00;0.00;;;;;;;-145.06;94.98;54826.09;10380059;28;20022;-68
2023/12/22 06:27:08;;;;;;;0.00;0.00;;;;;;;-145.06;100.00;54779.50;10381640;28;20272;-69
2023/12/22 06:32:09;;;;;;;0.00;0.00;;;;;;;-145.06;100.00;54777.47;10378172;28;20387;-69
2023/12/22 06:37:10;;;;;;;0.00;0.00;;;;;;;-145.06;100.00;54779.50;10382735;28;20132;-69
2023/12/22 06:42:12;;;;;;;0.00;0.00;;;;;;;-145.06;100.00;54799.75;10378626;28;20438;-69
2023/12/22 06:47:12;;;;;;;0.00;0.00;;;;;;;-145.06;100.00;54785.59;10383868;28;20026;-69
2023/12/22 06:52:12;;;;;;;0.00;0.00;;;;;;;-145.06;100.00;54793.69;10376401;28;20025;-69
2023/12/22 06:57:13;;;;;;;0.00;0.00;;;;;;;-145.06;100.00;54787.59;10378882;28;20052;-69
2023/12/22 07:02:13;;;;;;;0.00;0.00;;;;;;;-145.06;100.00;54807.88;10378631;28;20089;-69
2023/12/22 07:07:13;;;;;;;0.00;0.00;;;;;;;-145.06;100.00;54830.16;10382419;28;20022;-69
2023/12/22 07:12:13;;;;;;;0.00;0.00;;;;;;;-145.06;100.00;54787.59;10379312;28;20129;-69
2023/12/22 07:17:15;;;;;;;0.00;0.00;;;;;;;-145.06;96.85;54815.97;10383058;28;20284;-69
2023/12/22 07:22:15;;;;;;;0.00;0.00;;;;;;;-145.06;91.38;54858.50;10379859;28;20021;-69
2023/12/22 07:27:16;;;;;;;0.00;0.00;;;;;;;-145.06;100.00;54686.31;10375224;28;20025;-68
2023/12/22 07:32:16;;;;;;;0.00;0.00;;;;;;;-145.06;100.00;54787.59;10377906;28;20030;-68
2023/12/22 07:37:16;;;;;;;0.00;0.00;;;;;;;-145.06;100.00;54791.66;10380098;28;20025;-69
2023/12/22 07:42:17;;;;;;;0.00;0.00;;;;;;;-145.06;100.00;54803.81;10376373;28;20509;-69
2023/12/22 07:47:17;;;;;;;0.00;0.00;;;;;;;-145.06;100.00;54799.75;10375400;28;20439;-69
2023/12/22 07:52:18;;;;;;;0.00;0.00;;;;;;;-145.06;100.00;54765.31;10382021;28;20386;-69
2023/12/22 07:57:18;;;;;;;0.00;0.00;;;;;;;-145.06;100.00;54795.72;10382498;28;20113;-69
2023/12/22 08:02:19;;;;;;;0.00;0.00;;;;;;;-145.06;100.00;54783.56;10388019;28;20014;-68
2023/12/22 08:07:19;;;;;;;0.00;0.00;;;;;;;-145.06;100.00;54807.88;10385674;28;20029;-68
2023/12/22 08:12:19;;;;;;;0.00;0.00;;;;;;;-145.06;100.00;54775.44;10383815;28;20021;-69
2023/12/22 08:17:20;;;;;;;0.00;0.00;;;;;;;-145.06;100.00;54763.31;10385343;28;20100;-69
2023/12/22 08:22:20;;;;;;;0.00;0.00;;;;;;;-145.06;100.00;54799.75;10389080;28;20014;-69
2023/12/22 08:27:20;;;;;;;0.00;0.00;;;;;;;-145.06;100.00;54795.72;10384359;28;20272;-69
2023/12/22 08:32:20;;;;;;;0.00;0.00;;;;;;;-145.06;99.68;54803.81;10383896;28;20388;-69
2023/12/22 08:37:21;;;;;;;0.00;0.00;;;;;;;-145.06;98.33;54801.78;10383977;28;20029;-69
2023/12/22 08:42:22;;;;;;;0.00;0.00;;;;;;;-145.06;100.00;54799.75;10389491;28;20017;-69
2023/12/22 08:47:22;;;;;;;0.00;0.00;;;;;;;-145.06;100.00;54811.91;10383496;28;20498;-69
2023/12/22 08:52:22;;;;;;;0.00;0.00;;;;;;;-145.06;97.56;54840.28;10385097;28;20018;-69
2023/12/22 08:57:22;;;;;;;0.00;0.00;;;;;;;-145.06;94.28;54838.25;10389555;28;20022;-68
2023/12/22 09:02:23;;;;;;;0.00;0.00;;;;;;;-145.06;92.02;54864.59;10384423;28;20593;-68
2023/12/22 09:07:24;;;;;;;0.00;0.00;;;;;;;-145.06;89.39;54848.38;10374408;28;20120;-69
2023/12/22 09:12:24;;;;;;;0.00;0.00;;;;;;;-145.06;88.38;54840.28;10372837;28;20784;-69
2023/12/22 09:17:27;;;;;;;0.00;0.00;;;;;;;-145.06;87.66;54850.41;10372345;28;20100;-69
2023/12/22 09:22:27;;;;;;;0.00;0.00;;;;;;;-145.06;87.91;54820.00;10372796;28;20022;-69
2023/12/22 09:27:30;;;;;;;0.00;0.00;;;;;;;-145.06;84.85;54787.59;10377680;28;20025;-68
2023/12/22 09:32:30;;;;;;;0.00;0.00;;;;;;;-145.06;84.17;54779.50;10378800;28;20463;-69
2023/12/22 09:37:30;;;;;;;0.00;0.00;;;;;;;-145.06;84.86;54830.16;10376670;28;20100;-69
2023/12/22 09:42:31;;;;;;;0.00;0.00;;;;;;;-145.06;83.95;54767.34;10375999;28;20053;-69
2023/12/22 09:47:34;;;;;;;0.00;0.00;;;;;;;-145.06;85.43;54767.34;10375910;28;20100;-68
2023/12/22 09:52:36;;;;;;;0.00;0.00;;;;;;;-145.06;86.77;54807.88;10382619;28;20045;-68
2023/12/22 09:57:39;;;;;;;0.00;0.00;;;;;;;-145.06;87.64;54842.31;10378954;28;20399;-69
2023/12/22 10:02:39;;;;;;;0.10;0.10;;;;;;;-145.06;90.73;54811.91;10381717;28;20082;-70
2023/12/22 10:07:43;;;;;;;0.00;0.00;;;;;;;-145.06;91.29;54795.72;10378563;28;20598;-69
2023/12/22 10:12:45;;;;;;;0.00;0.00;;;;;;;-145.06;90.03;54826.09;10373652;28;20032;-70
2023/12/22 10:17:46;;;;;;;0.00;0.00;;;;;;;-145.06;89.99;54836.22;10370281;28;20026;-69
2023/12/22 10:22:46;;;;;;;0.00;0.00;;;;;;;-145.06;90.90;54795.72;10381014;28;20009;-68
2023/12/22 10:27:46;;;;;;;0.00;0.00;;;;;;;-145.06;93.56;54801.78;10378051;28;20105;-69
2023/12/22 10:32:47;;;;;;;0.00;0.00;;;;;;;-145.06;96.24;54747.09;10376782;28;20021;-69
2023/12/22 10:37:47;;;;;;;0.05;0.05;;;;;;;-145.06;97.73;54771.41;10374267;28;20022;-71
2023/12/22 10:42:51;;;;;;;0.00;0.00;;;;;;;-145.06;99.86;54795.72;10378054;28;20024;-69
2023/12/22 10:47:52;;;;;;;0.00;0.00;;;;;;;-145.06;100.00;54799.75;10374952;28;20029;-68
2023/12/22 10:52:53;;;;;;;0.00;0.00;;;;;;;-145.06;100.00;54787.59;10375213;28;20110;-69
2023/12/22 10:57:54;;;;;;;0.00;0.00;;;;;;;-145.06;100.00;54815.97;10378117;28;20029;-68
2023/12/22 11:03:04;;;;;;;0.00;0.00;;;;;;;-145.06;100.00;54826.09;10375970;28;20014;-68
2023/12/22 11:08:08;;;;;;;0.00;0.00;;;;;;;-145.06;100.00;54807.88;10367446;28;20061;-68
2023/12/22 11:13:10;;;;;;;0.00;0.00;;;;;;;-145.06;100.00;54818.00;10375381;28;20026;-68
2023/12/22 11:18:11;;;;;;;0.00;0.00;;;;;;;-145.06;100.00;54781.53;10373266;28;20026;-69
2023/12/22 11:23:14;;;;;;;0.00;0.00;;;;;;;-145.06;100.00;54811.91;10371042;28;20021;-69
2023/12/22 11:28:14;;;;;;;0.00;0.00;;;;;;;-145.06;100.00;54805.84;10374271;28;20109;-69
2023/12/22 11:33:16;;;;;;;0.00;0.00;;;;;;;-145.06;100.00;54787.59;10376501;28;20105;-69
2023/12/22 11:38:16;;;;;;;0.00;0.00;;;;;;;-145.06;100.00;54807.88;10372944;28;20030;-69
2023/12/22 11:43:18;;;;;;;0.00;0.00;;;;;;;-145.06;100.00;54797.72;10372269;28;20029;-69
2023/12/22 11:48:19;;;;;;;0.00;0.00;;;;;;;-145.06;100.00;54765.31;10374135;28;20550;-70
2023/12/22 11:53:24;;;;;;;0.00;0.00;;;;;;;-145.06;100.00;54769.38;10383817;28;20065;-69
2023/12/22 11:58:36;;;;;;;;;;;;;;;-145.06;100.00;54722.78;10367732;28;20101;-69
2023/12/22 12:03:55;;;;;;;0.00;0.00;;;;;;;-145.06;100.00;54749.13;10367131;28;20243;-70
2023/12/22 12:09:01;;;;;;;0.00;0.00;;;;;;;-145.06;100.00;54734.94;10366055;28;20033;-69
2023/12/22 12:14:11;;;;;;;0.00;0.00;;;;;;;-145.06;100.00;54724.81;10364851;28;20022;-69
2023/12/22 12:19:11;;;;;;;0.10;0.10;;;;;;;-145.06;100.00;54732.91;10366418;28;20018;-69
2023/12/22 12:24:12;;;;;;;0.03;0.03;;;;;;;-145.06;100.00;54726.84;10366739;28;20033;-69
2023/12/22 12:29:12;;;;;;;0.00;0.00;;;;;;;-145.06;100.00;54739.00;10365943;28;20018;-69
2023/12/22 12:34:14;;;;;;;0.00;0.00;;;;;;;-145.06;100.00;54747.09;10366888;28;20808;-69
2023/12/22 12:39:15;;;;;;;0.00;0.00;;;;;;;-145.06;100.00;54728.88;10368937;28;20124;-69
2023/12/22 12:44:17;;;;;;;0.00;0.00;;;;;;;-145.06;100.00;54759.25;10375661;28;20021;-69
2023/12/22 12:49:18;;;;;;;0.00;0.00;;;;;;;-145.06;100.00;54751.16;10372146;28;20491;-69
2023/12/22 12:54:19;;;;;;;0.00;0.00;;;;;;;-145.06;100.00;54761.28;10373583;28;20030;-69
2023/12/22 12:59:20;;;;;;;0.00;0.00;;;;;;;-145.06;100.00;54743.03;10372711;28;20068;-69
2023/12/22 13:04:20;;;;;;;0.00;0.00;;;;;;;-145.06;100.00;54779.50;10372993;28;20356;-69
2023/12/22 13:09:20;;;;;;;0.10;0.10;;;;;;;-145.06;100.00;54769.38;10371094;28;20018;-69
2023/12/22 13:14:27;;;;;;;0.00;0.00;;;;;;;-145.06;100.00;54761.28;10372371;28;20109;-70
2023/12/22 13:19:28;;;;;;;0.10;0.10;;;;;;;-145.06;100.00;54759.25;10372482;28;20032;-69
2023/12/22 13:24:28;;;;;;;0.00;0.00;;;;;;;-145.06;100.00;54747.09;10372597;28;20093;-69
2023/12/22 13:29:29;;;;;;;0.00;0.00;;;;;;;-145.06;100.00;54714.69;10372097;28;20028;-69
2023/12/22 13:34:30;;;;;;;0.10;0.10;;;;;;;-145.06;100.00;54759.25;10371964;28;20479;-70
2023/12/22 13:39:30;;;;;;;0.00;0.00;;;;;;;-145.06;100.00;54730.88;10371257;28;20101;-69
2023/12/22 13:44:31;;;;;;;0.00;0.00;;;;;;;-145.06;100.00;54781.53;10371619;28;20075;-70
2023/12/22 13:49:33;;;;;;;0.00;0.00;;;;;;;-145.06;100.00;54747.09;10371001;28;20021;-70
2023/12/22 13:54:34;;;;;;;0.00;0.00;;;;;;;-145.06;100.00;54761.28;10370389;28;20377;-70
2023/12/22 13:59:35;;;;;;;0.00;0.00;;;;;;;-145.06;100.00;54732.91;10370768;28;20075;-69
2023/12/22 14:04:35;;;;;;;0.00;0.00;;;;;;;-145.06;100.00;54745.06;10370663;28;20033;-69
2023/12/22 14:09:38;;;;;;;0.00;0.00;;;;;;;-145.06;100.00;54765.31;10388933;28;20101;-69
2023/12/22 14:14:38;;;;;;;0.00;0.00;;;;;;;-145.06;100.00;54741.03;10395312;28;20084;-69
2023/12/22 14:19:38;;;;;;;0.10;0.10;;;;;;;-145.06;100.00;54739.00;10385238;28;20449;-69
2023/12/22 14:24:38;;;;;;;0.00;0.00;;;;;;;-145.06;100.00;54761.28;10379903;28;20071;-69
2023/12/22 14:29:41;;;;;;;0.00;0.00;;;;;;;-145.06;100.00;54775.44;10389901;28;20039;-69
2023/12/22 14:34:42;;;;;;;0.00;0.00;;;;;;;-145.06;100.00;54726.84;10390505;28;20049;-69
2023/12/22 14:39:42;;;;;;;0.00;0.00;;;;;;;-145.06;100.00;54747.09;10388418;28;20529;-69
2023/12/22 14:44:43;;;;;;;0.00;0.00;;;;;;;-145.06;100.00;54739.00;10390205;28;20016;-69
2023/12/22 14:49:43;;;;;;;0.00;0.00;;;;;;;-145.06;100.00;54745.06;10390358;28;20366;-69
2023/12/22 14:54:44;;;;;;;0.00;0.00;;;;;;;-145.06;100.00;54739.00;10389866;28;20029;-69
2023/12/22 14:59:45;;;;;;;0.00;0.00;;;;;;;-145.06;100.00;54777.47;10389239;28;20029;-69
2023/12/22 15:04:45;;;;;;;0.00;0.00;;;;;;;-145.06;100.00;54734.94;10383648;28;20025;-70
2023/12/22 15:09:48;;;;;;;0.10;0.10;;;;;;;-145.06;100.00;54747.09;10386409;28;20497;-69
2023/12/22 15:14:49;;;;;;;0.00;0.00;;;;;;;-145.06;100.00;54745.06;10387808;28;20410;-69
2023/12/22 15:19:49;;;;;;;0.00;0.00;;;;;;;-145.06;100.00;54702.53;10383331;28;20022;-69
2023/12/22 15:24:49;;;;;;;0.00;0.00;;;;;;;-145.06;100.00;54712.66;10390186;28;20025;-70
2023/12/22 15:29:50;;;;;;;0.00;0.00;;;;;;;-145.06;100.00;54734.94;10378369;28;20175;-70
2023/12/22 15:34:50;;;;;;;0.00;0.00;;;;;;;-145.06;100.00;54732.91;10388575;28;20097;-69
2023/12/22 15:39:50;;;;;;;0.00;0.00;;;;;;;-145.06;100.00;54724.81;10390999;28;20446;-69
2023/12/22 15:44:51;;;;;;;0.00;0.00;;;;;;;-145.06;100.00;54724.81;10388423;28;20347;-70
2023/12/22 15:49:51;;;;;;;0.00;0.00;;;;;;;-145.06;100.00;54722.78;10393088;28;20398;-69
2023/12/22 15:54:51;;;;;;;0.00;0.00;;;;;;;-145.06;100.00;54720.75;10393223;28;20794;-70
2023/12/22 15:59:52;;;;;;;0.10;0.10;;;;;;;-145.06;100.00;54730.88;10392827;28;20268;-69
2023/12/22 16:04:52;;;;;;;0.08;0.08;;;;;;;-145.06;100.00;54751.16;10387931;28;20026;-69
2023/12/22 16:09:53;;;;;;;0.10;0.10;;;;;;;-145.06;100.00;54755.19;10389854;28;20030;-69
2023/12/22 16:14:54;;;;;;;0.00;0.00;;;;;;;-145.06;100.00;54767.34;10393562;28;20032;-68
2023/12/22 16:19:54;;;;;;;0.00;0.00;;;;;;;-145.06;100.00;54761.28;10400188;28;20405;-69
2023/12/22 16:24:55;;;;;;;0.00;0.00;;;;;;;-145.06;100.00;54739.00;10396258;28;20028;-69
2023/12/22 16:29:55;;;;;;;0.00;0.00;;;;;;;-145.06;100.00;54743.03;10394934;28;20025;-69
2023/12/22 16:34:55;;;;;;;0.00;0.00;;;;;;;-145.06;100.00;54710.63;10381737;28;20025;-69
2023/12/22 16:39:55;;;;;;;0.05;0.05;;;;;;;-145.06;100.00;54708.59;10386087;28;20021;-69
2023/12/22 16:44:56;;;;;;;0.00;0.00;;;;;;;-145.06;100.00;54710.63;10383622;28;20116;-69
2023/12/22 16:49:56;;;;;;;0.00;0.00;;;;;;;-145.06;100.00;54708.59;10383333;28;20033;-69
2023/12/22 16:54:56;;;;;;;0.00;0.00;;;;;;;-145.06;100.00;54700.50;10380198;28;20026;-69
2023/12/22 16:59:57;;;;;;;0.00;0.00;;;;;;;-145.06;100.00;54759.25;10384925;28;20037;-69
2023/12/22 17:04:57;;;;;;;0.00;0.00;;;;;;;-145.06;100.00;54720.75;10381825;28;20382;-69
2023/12/22 17:09:57;;;;;;;0.00;0.00;;;;;;;-145.06;100.00;54747.09;10382120;28;20402;-69
2023/12/22 17:14:58;;;;;;;0.00;0.00;;;;;;;-145.06;100.00;54783.56;10385218;28;20034;-69
2023/12/22 17:19:59;;;;;;;0.00;0.00;;;;;;;-145.06;100.00;54743.03;10382081;28;20022;-69
2023/12/22 17:24:59;;;;;;;0.00;0.00;;;;;;;-145.06;100.00;54773.44;10382070;28;20403;-69
2023/12/22 17:29:59;;;;;;;0.10;0.10;;;;;;;-145.06;100.00;54795.72;10380433;28;20018;-69
2023/12/22 17:34:59;;;;;;;0.00;0.00;;;;;;;-145.06;100.00;54820.00;10383313;28;20030;-70
2023/12/22 17:40:00;;;;;;;0.00;0.00;;;;;;;-145.06;100.00;54789.63;10381387;28;20376;-69
2023/12/22 17:45:01;;;;;;;0.00;0.00;;;;;;;-145.06;100.00;54801.78;10377151;28;20387;-69
2023/12/22 17:50:01;;;;;;;0.00;0.00;;;;;;;-145.06;99.14;54787.59;10375882;28;20268;-70
2023/12/22 17:55:01;;;;;;;0.00;0.00;;;;;;;-145.06;98.79;54813.94;10384829;28;20022;-71
2023/12/22 18:00:03;;;;;;;0.00;0.00;;;;;;;-145.06;100.00;54787.59;10379226;28;20498;-70
2023/12/22 18:05:03;;;;;;;0.00;0.00;;;;;;;-145.06;98.74;54807.88;10381089;28;20025;-70
2023/12/22 18:10:04;;;;;;;0.00;0.00;;;;;;;-145.06;94.48;54862.56;10380452;28;20026;-70
2023/12/22 18:15:06;;;;;;;0.00;0.00;;;;;;;-145.06;94.59;54836.22;10382480;28;20054;-70
2023/12/22 18:20:07;;;;;;;0.08;0.08;;;;;;;-145.06;94.40;54815.97;10374927;28;20084;-69
2023/12/22 18:25:10;;;;;;;0.00;0.00;;;;;;;-145.06;94.52;54840.28;10377400;28;20026;-71
2023/12/22 18:30:11;;;;;;;0.00;0.00;;;;;;;-145.06;95.57;54807.88;10375991;28;20025;-70
2023/12/22 18:35:11;;;;;;;0.00;0.00;;;;;;;-145.06;96.07;54848.38;10377919;28;20471;-70
2023/12/22 18:40:12;;;;;;;0.00;0.00;;;;;;;-145.06;98.72;54820.00;10380904;28;20065;-70
2023/12/22 18:45:13;;;;;;;0.00;0.00;;;;;;;-145.06;99.83;54828.13;10376937;28;20684;-70
2023/12/22 18:50:13;;;;;;;0.00;0.00;;;;;;;-145.06;99.69;54834.19;10378186;28;20100;-70
2023/12/22 18:55:13;;;;;;;0.00;0.00;;;;;;;-145.06;95.36;54818.00;10376538;28;20104;-70
2023/12/22 19:00:14;;;;;;;0.10;0.10;;;;;;;-145.06;94.55;54807.88;10377831;28;20024;-70
2023/12/22 19:05:14;;;;;;;0.00;0.00;;;;;;;-145.06;94.78;54848.38;10375910;28;20022;-69
2023/12/22 19:10:14;;;;;;;0.00;0.00;;;;;;;-145.06;96.03;54844.31;10377627;28;20047;-70
2023/12/22 19:15:15;;;;;;;0.00;0.00;;;;;;;-145.06;94.16;54844.31;10373229;28;20418;-70
2023/12/22 19:20:15;;;;;;;0.00;0.00;;;;;;;-145.06;94.28;54838.25;10377082;28;20475;-70
2023/12/22 19:25:16;;;;;;;0.00;0.00;;;;;;;-145.06;96.25;54834.19;10377142;28;20117;-71
2023/12/22 19:30:16;;;;;;;0.00;0.00;;;;;;;-145.06;97.51;54824.06;10377259;28;20402;-70
2023/12/22 19:35:17;;;;;;;0.00;0.00;;;;;;;-145.06;99.23;54834.19;10377661;28;20096;-71
2023/12/22 19:40:17;;;;;;;0.00;0.00;;;;;;;-145.06;100.00;54818.00;10381260;28;20076;-71
2023/12/22 19:45:17;;;;;;;0.00;0.00;;;;;;;-145.06;100.00;54813.94;10377376;28;20026;-71
2023/12/22 19:50:18;;;;;;;0.00;0.00;;;;;;;-145.06;100.00;54813.94;10375237;28;20292;-71
2023/12/22 19:55:18;;;;;;;0.00;0.00;;;;;;;-145.06;100.00;54818.00;10388092;28;20495;-71
2023/12/22 20:00:19;;;;;;;0.00;0.00;;;;;;;-145.06;100.00;54818.00;10382596;28;20453;-71
2023/12/22 20:05:19;;;;;;;0.00;0.00;;;;;;;-145.06;100.00;54813.94;10384993;28;20033;-69
2023/12/22 20:10:20;;;;;;;0.00;0.00;;;;;;;-145.06;100.00;54791.66;10383706;28;20101;-70
2023/12/22 20:15:20;;;;;;;0.00;0.00;;;;;;;-145.06;100.00;54799.75;10379807;28;20043;-72
2023/12/22 20:20:20;;;;;;;0.00;0.00;;;;;;;-145.06;100.00;54791.66;10377193;28;20083;-70
2023/12/22 20:25:21;;;;;;;0.00;0.00;;;;;;;-145.06;100.00;54795.72;10372685;28;20398;-70
2023/12/22 20:30:21;;;;;;;0.00;0.00;;;;;;;-145.06;100.00;54795.72;10373981;28;20036;-69
2023/12/22 20:35:22;;;;;;;0.00;0.00;;;;;;;-145.06;100.00;54807.88;10374649;28;20022;-71
2023/12/22 20:40:22;;;;;;;0.00;0.00;;;;;;;-145.06;100.00;54795.72;10373997;28;20022;-71
2023/12/22 20:45:23;;;;;;;0.00;0.00;;;;;;;-145.06;100.00;54799.75;10374334;28;20021;-71
2023/12/22 20:50:24;;;;;;;0.00;0.00;;;;;;;-145.06;100.00;54795.72;10373685;28;20030;-71
2023/12/22 20:55:24;;;;;;;0.00;0.00;;;;;;;-145.06;100.00;54761.28;10373505;28;20022;-72
2023/12/22 21:00:24;;;;;;;0.00;0.00;;;;;;;-145.06;100.00;54803.81;10386534;28;20328;-69
2023/12/22 21:05:25;;;;;;;0.00;0.00;;;;;;;-145.06;100.00;54805.84;10371365;28;20443;-69
2023/12/22 21:10:25;;;;;;;0.00;0.00;;;;;;;-145.06;100.00;54767.34;10373166;28;20030;-69
2023/12/22 21:15:25;;;;;;;0.00;0.00;;;;;;;-145.06;100.00;54836.22;10372736;28;20073;-69
2023/12/22 21:20:26;;;;;;;0.00;0.00;;;;;;;-145.06;97.41;54834.19;10371884;28;20259;-69
2023/12/22 21:25:26;;;;;;;0.00;0.00;;;;;;;-145.06;97.68;54846.34;10373098;28;20064;-69
2023/12/22 21:30:28;;;;;;;0.00;0.00;;;;;;;-145.06;98.96;54880.78;10371845;28;20291;-69
2023/12/22 21:35:28;;;;;;;0.00;0.00;;;;;;;-145.06;100.00;54846.34;10371664;28;20104;-70
2023/12/22 21:40:29;;;;;;;0.00;0.00;;;;;;;-145.06;99.42;54846.34;10372759;28;20097;-71
2023/12/22 21:45:29;;;;;;;0.00;0.00;;;;;;;-145.06;98.26;54840.28;10370283;28;20018;-70
2023/12/22 21:50:30;;;;;;;0.00;0.00;;;;;;;-145.06;91.90;54884.84;10371348;28;20030;-71
2023/12/22 21:55:30;;;;;;;0.00;0.00;;;;;;;-145.06;88.21;54905.09;10370971;28;20100;-70
2023/12/22 22:00:30;;;;;;;0.00;0.00;;;;;;;-145.06;88.47;54868.63;10370698;28;20018;-71
2023/12/22 22:05:31;;;;;;;0.00;0.00;;;;;;;-145.06;89.32;54892.94;10371070;28;20036;-71
2023/12/22 22:10:31;;;;;;;0.10;0.10;;;;;;;-145.06;90.72;54909.16;10370078;28;20280;-68
2023/12/22 22:15:32;;;;;;;0.00;0.00;;;;;;;-145.06;93.56;54901.03;10370209;28;20032;-69
2023/12/22 22:20:32;;;;;;;0.00;0.00;;;;;;;-145.06;90.56;54899.00;10368387;28;20125;-70
2023/12/22 22:25:33;;;;;;;0.00;0.00;;;;;;;-145.06;91.00;54935.47;10370205;28;20024;-71
2023/12/22 22:30:33;;;;;;;0.00;0.00;;;;;;;-145.06;92.70;54901.03;10367377;28;20029;-71
2023/12/22 22:35:35;;;;;;;0.00;0.00;;;;;;;-145.06;95.59;54905.09;10369149;28;20391;-71